sensor_id;sensor_type;location;lat;lon;timestamp;P1;durP1;ratioP1;P2;durP2;ratioP2
28934;SDS011;16044;52.726;-2.108;2023-04-03T00:01:20;8.15;;;2.55;;
28934;SDS011;16044;52.726;-2.108;2023-04-03T00:03:47;11.10;;;3.25;;
28934;SDS011;16044;52.726;-2.108;2023-04-03T00:06:14;10.27;;;2.78;;
28934;SDS011;16044;52.726;-2.108;2023-04-03T00:08:41;12.80;;;3.33;;
28934;SDS011;16044;52.726;-2.108;2023-04-03T00:11:09;14.75;;;3.50;;
28934;SDS011;16044;52.726;-2.108;2023-04-03T00:13:36;11.30;;;3.28;;
28934;SDS011;16044;52.726;-2.108;2023-04-03T00:16:05;15.43;;;3.50;;
28934;SDS011;16044;52.726;-2.108;2023-04-03T00:18:35;12.75;;;3.38;;
28934;SDS011;16044;52.726;-2.108;2023-04-03T00:21:03;13.38;;;3.30;;
28934;SDS011;16044;52.726;-2.108;2023-04-03T00:23:31;11.82;;;3.72;;
28934;SDS011;16044;52.726;-2.108;2023-04-03T00:25:59;10.98;;;3.40;;
28934;SDS011;16044;52.726;-2.108;2023-04-03T00:28:26;16.13;;;3.42;;
28934;SDS011;16044;52.726;-2.108;2023-04-03T00:30:53;14.15;;;3.45;;
28934;SDS011;16044;52.726;-2.108;2023-04-03T00:33:21;12.50;;;3.00;;
28934;SDS011;16044;52.726;-2.108;2023-04-03T00:35:48;20.35;;;4.32;;
28934;SDS011;16044;52.726;-2.108;2023-04-03T00:38:16;10.05;;;3.05;;
28934;SDS011;16044;52.726;-2.108;2023-04-03T00:40:44;12.65;;;3.20;;
28934;SDS011;16044;52.726;-2.108;2023-04-03T00:43:18;8.45;;;2.90;;
28934;SDS011;16044;52.726;-2.108;2023-04-03T00:45:50;12.90;;;3.17;;
28934;SDS011;16044;52.726;-2.108;2023-04-03T00:48:20;9.45;;;3.13;;
28934;SDS011;16044;52.726;-2.108;2023-04-03T00:50:53;10.52;;;2.60;;
28934;SDS011;16044;52.726;-2.108;2023-04-03T00:56:27;11.63;;;2.97;;
28934;SDS011;16044;52.726;-2.108;2023-04-03T00:58:58;10.90;;;3.05;;
28934;SDS011;16044;52.726;-2.108;2023-04-03T01:01:35;11.57;;;3.63;;
28934;SDS011;16044;52.726;-2.108;2023-04-03T01:04:04;14.90;;;3.30;;
28934;SDS011;16044;52.726;-2.108;2023-04-03T01:06:34;8.30;;;2.88;;
28934;SDS011;16044;52.726;-2.108;2023-04-03T01:09:03;18.23;;;3.45;;
28934;SDS011;16044;52.726;-2.108;2023-04-03T01:11:32;14.85;;;3.08;;
28934;SDS011;16044;52.726;-2.108;2023-04-03T01:13:59;12.05;;;3.35;;
28934;SDS011;16044;52.726;-2.108;2023-04-03T01:16:26;12.25;;;3.13;;
28934;SDS011;16044;52.726;-2.108;2023-04-03T01:18:54;15.85;;;3.17;;
28934;SDS011;16044;52.726;-2.108;2023-04-03T01:24:32;15.13;;;3.90;;
28934;SDS011;16044;52.726;-2.108;2023-04-03T01:27:04;11.40;;;3.20;;
28934;SDS011;16044;52.726;-2.108;2023-04-03T01:29:33;10.38;;;3.33;;
28934;SDS011;16044;52.726;-2.108;2023-04-03T01:32:01;11.65;;;3.10;;
28934;SDS011;16044;52.726;-2.108;2023-04-03T01:34:29;11.73;;;3.28;;
28934;SDS011;16044;52.726;-2.108;2023-04-03T01:36:57;12.93;;;3.50;;
28934;SDS011;16044;52.726;-2.108;2023-04-03T01:39:24;8.10;;;3.22;;
28934;SDS011;16044;52.726;-2.108;2023-04-03T01:41:52;12.35;;;3.08;;
28934;SDS011;16044;52.726;-2.108;2023-04-03T01:44:19;11.45;;;3.17;;
28934;SDS011;16044;52.726;-2.108;2023-04-03T01:46:47;12.00;;;3.15;;
28934;SDS011;16044;52.726;-2.108;2023-04-03T01:49:13;12.90;;;3.03;;
28934;SDS011;16044;52.726;-2.108;2023-04-03T01:51:40;12.35;;;3.30;;
28934;SDS011;16044;52.726;-2.108;2023-04-03T01:54:07;8.40;;;2.88;;
28934;SDS011;16044;52.726;-2.108;2023-04-03T01:56:34;9.98;;;3.33;;
28934;SDS011;16044;52.726;-2.108;2023-04-03T01:59:01;14.02;;;3.45;;
28934;SDS011;16044;52.726;-2.108;2023-04-03T02:01:28;14.73;;;3.45;;
28934;SDS011;16044;52.726;-2.108;2023-04-03T02:03:55;10.40;;;3.20;;
28934;SDS011;16044;52.726;-2.108;2023-04-03T02:06:23;11.55;;;3.42;;
28934;SDS011;16044;52.726;-2.108;2023-04-03T02:08:50;11.18;;;3.67;;
28934;SDS011;16044;52.726;-2.108;2023-04-03T02:11:17;13.90;;;3.30;;
28934;SDS011;16044;52.726;-2.108;2023-04-03T02:13:44;14.07;;;3.78;;
28934;SDS011;16044;52.726;-2.108;2023-04-03T02:16:11;9.52;;;3.33;;
28934;SDS011;16044;52.726;-2.108;2023-04-03T02:18:39;9.02;;;3.20;;
28934;SDS011;16044;52.726;-2.108;2023-04-03T02:21:06;12.60;;;3.83;;
28934;SDS011;16044;52.726;-2.108;2023-04-03T02:23:33;12.73;;;3.95;;
28934;SDS011;16044;52.726;-2.108;2023-04-03T02:26:06;13.57;;;3.97;;
28934;SDS011;16044;52.726;-2.108;2023-04-03T02:28:37;13.40;;;3.72;;
28934;SDS011;16044;52.726;-2.108;2023-04-03T02:31:07;16.35;;;3.85;;
28934;SDS011;16044;52.726;-2.108;2023-04-03T02:33:37;14.85;;;4.43;;
28934;SDS011;16044;52.726;-2.108;2023-04-03T02:36:05;13.23;;;4.55;;
28934;SDS011;16044;52.726;-2.108;2023-04-03T02:38:33;14.88;;;4.00;;
28934;SDS011;16044;52.726;-2.108;2023-04-03T02:41:02;14.32;;;4.10;;
28934;SDS011;16044;52.726;-2.108;2023-04-03T02:43:31;14.35;;;4.07;;
28934;SDS011;16044;52.726;-2.108;2023-04-03T02:45:58;17.58;;;5.07;;
28934;SDS011;16044;52.726;-2.108;2023-04-03T02:48:26;12.30;;;4.28;;
28934;SDS011;16044;52.726;-2.108;2023-04-03T02:50:53;9.90;;;3.47;;
28934;SDS011;16044;52.726;-2.108;2023-04-03T02:53:20;13.13;;;4.40;;
28934;SDS011;16044;52.726;-2.108;2023-04-03T02:55:47;14.55;;;4.38;;
28934;SDS011;16044;52.726;-2.108;2023-04-03T02:58:15;20.30;;;4.93;;
28934;SDS011;16044;52.726;-2.108;2023-04-03T03:00:42;19.75;;;4.47;;
28934;SDS011;16044;52.726;-2.108;2023-04-03T03:03:09;11.85;;;4.30;;
28934;SDS011;16044;52.726;-2.108;2023-04-03T03:05:36;16.35;;;4.65;;
28934;SDS011;16044;52.726;-2.108;2023-04-03T03:08:03;11.35;;;4.35;;
28934;SDS011;16044;52.726;-2.108;2023-04-03T03:10:30;15.95;;;5.55;;
28934;SDS011;16044;52.726;-2.108;2023-04-03T03:12:57;14.70;;;4.65;;
28934;SDS011;16044;52.726;-2.108;2023-04-03T03:15:24;11.00;;;4.32;;
28934;SDS011;16044;52.726;-2.108;2023-04-03T03:17:51;11.43;;;4.72;;
28934;SDS011;16044;52.726;-2.108;2023-04-03T03:20:18;13.98;;;4.50;;
28934;SDS011;16044;52.726;-2.108;2023-04-03T03:22:45;11.93;;;4.82;;
28934;SDS011;16044;52.726;-2.108;2023-04-03T03:25:12;18.83;;;5.70;;
28934;SDS011;16044;52.726;-2.108;2023-04-03T03:27:39;14.68;;;4.53;;
28934;SDS011;16044;52.726;-2.108;2023-04-03T03:30:07;16.15;;;4.93;;
28934;SDS011;16044;52.726;-2.108;2023-04-03T03:32:34;14.27;;;4.72;;
28934;SDS011;16044;52.726;-2.108;2023-04-03T03:35:02;10.55;;;4.38;;
28934;SDS011;16044;52.726;-2.108;2023-04-03T03:37:29;10.27;;;4.18;;
28934;SDS011;16044;52.726;-2.108;2023-04-03T03:39:56;16.73;;;4.78;;
28934;SDS011;16044;52.726;-2.108;2023-04-03T03:42:23;12.98;;;4.68;;
28934;SDS011;16044;52.726;-2.108;2023-04-03T03:44:50;12.57;;;4.38;;
28934;SDS011;16044;52.726;-2.108;2023-04-03T03:47:18;14.80;;;4.55;;
28934;SDS011;16044;52.726;-2.108;2023-04-03T03:49:45;18.83;;;4.57;;
28934;SDS011;16044;52.726;-2.108;2023-04-03T03:52:12;14.05;;;4.95;;
28934;SDS011;16044;52.726;-2.108;2023-04-03T03:54:39;14.00;;;4.25;;
28934;SDS011;16044;52.726;-2.108;2023-04-03T03:57:06;15.23;;;4.28;;
28934;SDS011;16044;52.726;-2.108;2023-04-03T03:59:33;14.98;;;4.57;;
28934;SDS011;16044;52.726;-2.108;2023-04-03T04:02:00;13.70;;;4.25;;
28934;SDS011;16044;52.726;-2.108;2023-04-03T04:04:27;15.52;;;4.50;;
28934;SDS011;16044;52.726;-2.108;2023-04-03T04:06:54;15.10;;;4.70;;
28934;SDS011;16044;52.726;-2.108;2023-04-03T04:09:21;15.18;;;5.13;;
28934;SDS011;16044;52.726;-2.108;2023-04-03T04:11:48;10.18;;;4.03;;
28934;SDS011;16044;52.726;-2.108;2023-04-03T04:14:15;16.52;;;4.50;;
28934;SDS011;16044;52.726;-2.108;2023-04-03T04:16:42;16.02;;;4.90;;
28934;SDS011;16044;52.726;-2.108;2023-04-03T04:19:09;14.55;;;4.70;;
28934;SDS011;16044;52.726;-2.108;2023-04-03T04:21:36;14.57;;;4.30;;
28934;SDS011;16044;52.726;-2.108;2023-04-03T04:24:03;12.07;;;4.00;;
28934;SDS011;16044;52.726;-2.108;2023-04-03T04:26:31;11.48;;;4.53;;
28934;SDS011;16044;52.726;-2.108;2023-04-03T04:28:58;12.65;;;4.65;;
28934;SDS011;16044;52.726;-2.108;2023-04-03T04:31:25;16.38;;;4.68;;
28934;SDS011;16044;52.726;-2.108;2023-04-03T04:33:53;14.77;;;5.40;;
28934;SDS011;16044;52.726;-2.108;2023-04-03T04:36:20;13.70;;;4.53;;
28934;SDS011;16044;52.726;-2.108;2023-04-03T04:38:47;12.25;;;4.78;;
28934;SDS011;16044;52.726;-2.108;2023-04-03T04:41:14;11.23;;;5.13;;
28934;SDS011;16044;52.726;-2.108;2023-04-03T04:43:42;14.40;;;4.60;;
28934;SDS011;16044;52.726;-2.108;2023-04-03T04:46:10;19.80;;;5.45;;
28934;SDS011;16044;52.726;-2.108;2023-04-03T04:48:40;11.13;;;4.40;;
28934;SDS011;16044;52.726;-2.108;2023-04-03T04:51:07;18.17;;;5.18;;
28934;SDS011;16044;52.726;-2.108;2023-04-03T04:53:34;12.90;;;4.28;;
28934;SDS011;16044;52.726;-2.108;2023-04-03T04:56:01;11.65;;;5.10;;
28934;SDS011;16044;52.726;-2.108;2023-04-03T04:58:28;14.38;;;5.28;;
28934;SDS011;16044;52.726;-2.108;2023-04-03T05:01:06;20.88;;;6.03;;
28934;SDS011;16044;52.726;-2.108;2023-04-03T05:03:35;11.85;;;5.10;;
28934;SDS011;16044;52.726;-2.108;2023-04-03T05:06:03;10.32;;;5.00;;
28934;SDS011;16044;52.726;-2.108;2023-04-03T05:08:31;12.73;;;4.82;;
28934;SDS011;16044;52.726;-2.108;2023-04-03T05:10:58;12.82;;;5.35;;
28934;SDS011;16044;52.726;-2.108;2023-04-03T05:13:25;16.60;;;5.70;;
28934;SDS011;16044;52.726;-2.108;2023-04-03T05:15:52;15.15;;;5.18;;
28934;SDS011;16044;52.726;-2.108;2023-04-03T05:18:19;15.63;;;5.30;;
28934;SDS011;16044;52.726;-2.108;2023-04-03T05:20:48;13.52;;;5.40;;
28934;SDS011;16044;52.726;-2.108;2023-04-03T05:23:17;14.60;;;5.70;;
28934;SDS011;16044;52.726;-2.108;2023-04-03T05:25:44;13.70;;;5.25;;
28934;SDS011;16044;52.726;-2.108;2023-04-03T05:28:13;15.95;;;5.07;;
28934;SDS011;16044;52.726;-2.108;2023-04-03T05:30:40;15.27;;;5.28;;
28934;SDS011;16044;52.726;-2.108;2023-04-03T05:33:07;17.33;;;5.55;;
28934;SDS011;16044;52.726;-2.108;2023-04-03T05:35:35;14.70;;;5.30;;
28934;SDS011;16044;52.726;-2.108;2023-04-03T05:38:07;19.25;;;5.40;;
28934;SDS011;16044;52.726;-2.108;2023-04-03T05:40:34;14.90;;;5.20;;
28934;SDS011;16044;52.726;-2.108;2023-04-03T05:43:01;16.65;;;5.22;;
28934;SDS011;16044;52.726;-2.108;2023-04-03T05:45:28;13.77;;;5.38;;
28934;SDS011;16044;52.726;-2.108;2023-04-03T05:47:56;12.63;;;5.43;;
28934;SDS011;16044;52.726;-2.108;2023-04-03T05:50:23;13.65;;;5.85;;
28934;SDS011;16044;52.726;-2.108;2023-04-03T05:52:51;20.00;;;6.18;;
28934;SDS011;16044;52.726;-2.108;2023-04-03T05:55:21;12.52;;;5.70;;
28934;SDS011;16044;52.726;-2.108;2023-04-03T05:57:49;23.63;;;6.28;;
28934;SDS011;16044;52.726;-2.108;2023-04-03T06:00:16;17.33;;;5.63;;
28934;SDS011;16044;52.726;-2.108;2023-04-03T06:02:44;15.02;;;6.38;;
28934;SDS011;16044;52.726;-2.108;2023-04-03T06:05:11;19.17;;;5.90;;
28934;SDS011;16044;52.726;-2.108;2023-04-03T06:07:39;17.52;;;6.65;;
28934;SDS011;16044;52.726;-2.108;2023-04-03T06:10:07;14.80;;;5.28;;
28934;SDS011;16044;52.726;-2.108;2023-04-03T06:12:35;19.15;;;5.93;;
28934;SDS011;16044;52.726;-2.108;2023-04-03T06:15:02;16.02;;;5.65;;
28934;SDS011;16044;52.726;-2.108;2023-04-03T06:17:30;12.23;;;5.75;;
28934;SDS011;16044;52.726;-2.108;2023-04-03T06:19:57;13.35;;;4.60;;
28934;SDS011;16044;52.726;-2.108;2023-04-03T06:22:24;14.73;;;5.00;;
28934;SDS011;16044;52.726;-2.108;2023-04-03T06:24:52;16.23;;;5.60;;
28934;SDS011;16044;52.726;-2.108;2023-04-03T06:27:19;14.07;;;5.22;;
28934;SDS011;16044;52.726;-2.108;2023-04-03T06:29:46;18.13;;;4.90;;
28934;SDS011;16044;52.726;-2.108;2023-04-03T06:32:14;12.35;;;5.15;;
28934;SDS011;16044;52.726;-2.108;2023-04-03T06:34:42;12.70;;;4.72;;
28934;SDS011;16044;52.726;-2.108;2023-04-03T06:37:15;16.05;;;4.97;;
28934;SDS011;16044;52.726;-2.108;2023-04-03T06:39:44;12.73;;;4.57;;
28934;SDS011;16044;52.726;-2.108;2023-04-03T06:42:11;17.15;;;4.78;;
28934;SDS011;16044;52.726;-2.108;2023-04-03T06:44:39;16.15;;;5.22;;
28934;SDS011;16044;52.726;-2.108;2023-04-03T06:47:06;14.13;;;4.53;;
28934;SDS011;16044;52.726;-2.108;2023-04-03T06:49:37;15.23;;;4.00;;
28934;SDS011;16044;52.726;-2.108;2023-04-03T06:52:04;18.73;;;4.70;;
28934;SDS011;16044;52.726;-2.108;2023-04-03T06:54:32;16.90;;;4.45;;
28934;SDS011;16044;52.726;-2.108;2023-04-03T06:56:59;16.10;;;5.07;;
28934;SDS011;16044;52.726;-2.108;2023-04-03T06:59:26;16.05;;;3.95;;
28934;SDS011;16044;52.726;-2.108;2023-04-03T07:01:54;17.23;;;3.55;;
28934;SDS011;16044;52.726;-2.108;2023-04-03T07:04:21;15.90;;;3.38;;
28934;SDS011;16044;52.726;-2.108;2023-04-03T07:06:48;9.48;;;2.40;;
28934;SDS011;16044;52.726;-2.108;2023-04-03T07:09:15;16.10;;;2.55;;
28934;SDS011;16044;52.726;-2.108;2023-04-03T07:11:42;13.07;;;2.20;;
28934;SDS011;16044;52.726;-2.108;2023-04-03T07:14:09;13.15;;;2.88;;
28934;SDS011;16044;52.726;-2.108;2023-04-03T07:16:36;14.07;;;2.38;;
28934;SDS011;16044;52.726;-2.108;2023-04-03T07:19:07;12.77;;;2.28;;
28934;SDS011;16044;52.726;-2.108;2023-04-03T07:21:35;12.95;;;2.28;;
28934;SDS011;16044;52.726;-2.108;2023-04-03T07:24:02;16.10;;;2.95;;
28934;SDS011;16044;52.726;-2.108;2023-04-03T07:26:29;12.20;;;2.20;;
28934;SDS011;16044;52.726;-2.108;2023-04-03T07:28:56;10.93;;;2.30;;
28934;SDS011;16044;52.726;-2.108;2023-04-03T07:31:24;12.07;;;2.42;;
28934;SDS011;16044;52.726;-2.108;2023-04-03T07:33:52;13.70;;;2.50;;
28934;SDS011;16044;52.726;-2.108;2023-04-03T07:36:21;12.25;;;2.40;;
28934;SDS011;16044;52.726;-2.108;2023-04-03T07:38:49;11.50;;;2.58;;
28934;SDS011;16044;52.726;-2.108;2023-04-03T07:41:17;10.05;;;2.42;;
28934;SDS011;16044;52.726;-2.108;2023-04-03T07:43:48;9.73;;;2.50;;
28934;SDS011;16044;52.726;-2.108;2023-04-03T07:46:16;11.60;;;1.90;;
28934;SDS011;16044;52.726;-2.108;2023-04-03T07:48:44;12.75;;;2.38;;
28934;SDS011;16044;52.726;-2.108;2023-04-03T07:51:11;11.68;;;2.13;;
28934;SDS011;16044;52.726;-2.108;2023-04-03T07:53:39;11.05;;;2.10;;
28934;SDS011;16044;52.726;-2.108;2023-04-03T07:56:06;16.58;;;2.30;;
28934;SDS011;16044;52.726;-2.108;2023-04-03T07:58:34;10.85;;;2.20;;
28934;SDS011;16044;52.726;-2.108;2023-04-03T08:01:02;9.10;;;1.90;;
28934;SDS011;16044;52.726;-2.108;2023-04-03T08:03:30;15.32;;;2.00;;
28934;SDS011;16044;52.726;-2.108;2023-04-03T08:06:01;12.10;;;2.03;;
28934;SDS011;16044;52.726;-2.108;2023-04-03T08:08:32;10.70;;;2.35;;
28934;SDS011;16044;52.726;-2.108;2023-04-03T08:11:00;12.45;;;2.53;;
28934;SDS011;16044;52.726;-2.108;2023-04-03T08:13:29;10.27;;;1.90;;
28934;SDS011;16044;52.726;-2.108;2023-04-03T08:15:57;7.95;;;2.00;;
28934;SDS011;16044;52.726;-2.108;2023-04-03T08:18:25;13.95;;;1.77;;
28934;SDS011;16044;52.726;-2.108;2023-04-03T08:20:53;7.43;;;1.55;;
28934;SDS011;16044;52.726;-2.108;2023-04-03T08:23:20;12.30;;;2.05;;
28934;SDS011;16044;52.726;-2.108;2023-04-03T08:25:47;11.90;;;1.88;;
28934;SDS011;16044;52.726;-2.108;2023-04-03T08:28:14;13.18;;;1.98;;
28934;SDS011;16044;52.726;-2.108;2023-04-03T08:30:41;12.73;;;1.67;;
28934;SDS011;16044;52.726;-2.108;2023-04-03T08:33:09;17.90;;;2.13;;
28934;SDS011;16044;52.726;-2.108;2023-04-03T08:35:40;11.93;;;2.20;;
28934;SDS011;16044;52.726;-2.108;2023-04-03T08:38:09;10.75;;;2.05;;
28934;SDS011;16044;52.726;-2.108;2023-04-03T08:40:37;11.98;;;2.33;;
28934;SDS011;16044;52.726;-2.108;2023-04-03T08:45:57;10.48;;;1.90;;
28934;SDS011;16044;52.726;-2.108;2023-04-03T08:48:30;9.73;;;1.67;;
28934;SDS011;16044;52.726;-2.108;2023-04-03T08:51:04;7.82;;;1.45;;
28934;SDS011;16044;52.726;-2.108;2023-04-03T08:53:43;17.35;;;2.13;;
28934;SDS011;16044;52.726;-2.108;2023-04-03T08:56:25;11.43;;;2.13;;
28934;SDS011;16044;52.726;-2.108;2023-04-03T08:59:12;11.70;;;1.80;;
28934;SDS011;16044;52.726;-2.108;2023-04-03T09:01:48;12.45;;;1.90;;
28934;SDS011;16044;52.726;-2.108;2023-04-03T09:04:17;12.32;;;1.75;;
28934;SDS011;16044;52.726;-2.108;2023-04-03T09:06:46;12.57;;;2.03;;
28934;SDS011;16044;52.726;-2.108;2023-04-03T09:09:36;8.70;;;1.95;;
28934;SDS011;16044;52.726;-2.108;2023-04-03T09:20:53;12.23;;;1.95;;
28934;SDS011;16044;52.726;-2.108;2023-04-03T09:28:53;9.27;;;1.90;;
28934;SDS011;16044;52.726;-2.108;2023-04-03T09:31:36;10.95;;;2.60;;
28934;SDS011;16044;52.726;-2.108;2023-04-03T09:34:13;12.23;;;2.67;;
28934;SDS011;16044;52.726;-2.108;2023-04-03T09:36:52;12.90;;;2.63;;
28934;SDS011;16044;52.726;-2.108;2023-04-03T09:39:25;7.45;;;2.08;;
28934;SDS011;16044;52.726;-2.108;2023-04-03T09:45:21;13.98;;;2.05;;
28934;SDS011;16044;52.726;-2.108;2023-04-03T09:48:04;11.90;;;2.10;;
28934;SDS011;16044;52.726;-2.108;2023-04-03T09:55:57;9.30;;;1.80;;
28934;SDS011;16044;52.726;-2.108;2023-04-03T09:58:28;8.85;;;2.00;;
28934;SDS011;16044;52.726;-2.108;2023-04-03T10:04:10;6.05;;;1.95;;
28934;SDS011;16044;52.726;-2.108;2023-04-03T10:06:46;7.97;;;1.98;;
28934;SDS011;16044;52.726;-2.108;2023-04-03T10:12:05;8.77;;;2.78;;
28934;SDS011;16044;52.726;-2.108;2023-04-03T10:14:36;10.57;;;2.45;;
28934;SDS011;16044;52.726;-2.108;2023-04-03T10:17:27;11.45;;;2.53;;
28934;SDS011;16044;52.726;-2.108;2023-04-03T10:26:16;13.70;;;2.38;;
28934;SDS011;16044;52.726;-2.108;2023-04-03T10:34:28;11.05;;;2.70;;
28934;SDS011;16044;52.726;-2.108;2023-04-03T10:37:13;8.27;;;2.20;;
28934;SDS011;16044;52.726;-2.108;2023-04-03T10:40:14;10.32;;;2.35;;
28934;SDS011;16044;52.726;-2.108;2023-04-03T10:42:56;10.40;;;1.95;;
28934;SDS011;16044;52.726;-2.108;2023-04-03T10:46:08;9.02;;;1.83;;
28934;SDS011;16044;52.726;-2.108;2023-04-03T10:51:43;10.95;;;2.20;;
28934;SDS011;16044;52.726;-2.108;2023-04-03T10:54:20;6.25;;;1.85;;
28934;SDS011;16044;52.726;-2.108;2023-04-03T10:56:54;6.97;;;2.35;;
28934;SDS011;16044;52.726;-2.108;2023-04-03T10:59:48;6.80;;;1.83;;
28934;SDS011;16044;52.726;-2.108;2023-04-03T11:05:46;11.03;;;2.20;;
28934;SDS011;16044;52.726;-2.108;2023-04-03T11:11:15;10.80;;;2.22;;
28934;SDS011;16044;52.726;-2.108;2023-04-03T11:13:52;8.60;;;1.73;;
28934;SDS011;16044;52.726;-2.108;2023-04-03T11:16:30;14.68;;;2.20;;
28934;SDS011;16044;52.726;-2.108;2023-04-03T11:19:35;8.63;;;1.90;;
28934;SDS011;16044;52.726;-2.108;2023-04-03T11:22:16;11.77;;;2.33;;
28934;SDS011;16044;52.726;-2.108;2023-04-03T11:24:54;9.85;;;1.90;;
28934;SDS011;16044;52.726;-2.108;2023-04-03T11:27:30;7.22;;;2.05;;
28934;SDS011;16044;52.726;-2.108;2023-04-03T11:30:14;9.68;;;2.35;;
28934;SDS011;16044;52.726;-2.108;2023-04-03T11:32:55;10.85;;;2.30;;
28934;SDS011;16044;52.726;-2.108;2023-04-03T11:35:44;8.80;;;2.13;;
28934;SDS011;16044;52.726;-2.108;2023-04-03T11:38:17;11.55;;;2.30;;
28934;SDS011;16044;52.726;-2.108;2023-04-03T11:40:53;10.50;;;2.25;;
28934;SDS011;16044;52.726;-2.108;2023-04-03T11:53:39;11.60;;;2.33;;
28934;SDS011;16044;52.726;-2.108;2023-04-03T11:59:14;9.63;;;2.17;;
28934;SDS011;16044;52.726;-2.108;2023-04-03T12:04:21;7.70;;;2.08;;
28934;SDS011;16044;52.726;-2.108;2023-04-03T12:26:38;7.70;;;2.35;;
28934;SDS011;16044;52.726;-2.108;2023-04-03T12:37:44;9.13;;;2.10;;
28934;SDS011;16044;52.726;-2.108;2023-04-03T12:44:03;7.65;;;2.08;;
28934;SDS011;16044;52.726;-2.108;2023-04-03T12:47:45;6.07;;;2.35;;
28934;SDS011;16044;52.726;-2.108;2023-04-03T12:50:20;10.65;;;2.40;;
28934;SDS011;16044;52.726;-2.108;2023-04-03T12:52:52;10.63;;;2.20;;
28934;SDS011;16044;52.726;-2.108;2023-04-03T12:55:26;11.82;;;2.50;;
28934;SDS011;16044;52.726;-2.108;2023-04-03T12:57:53;8.23;;;2.17;;
28934;SDS011;16044;52.726;-2.108;2023-04-03T13:02:53;8.27;;;2.15;;
28934;SDS011;16044;52.726;-2.108;2023-04-03T13:05:21;13.13;;;2.50;;
28934;SDS011;16044;52.726;-2.108;2023-04-03T13:07:50;7.10;;;2.47;;
28934;SDS011;16044;52.726;-2.108;2023-04-03T13:10:25;10.02;;;2.53;;
28934;SDS011;16044;52.726;-2.108;2023-04-03T13:12:53;12.13;;;2.58;;
28934;SDS011;16044;52.726;-2.108;2023-04-03T13:15:28;9.45;;;2.20;;
28934;SDS011;16044;52.726;-2.108;2023-04-03T13:17:57;7.93;;;2.30;;
28934;SDS011;16044;52.726;-2.108;2023-04-03T13:20:25;7.72;;;2.28;;
28934;SDS011;16044;52.726;-2.108;2023-04-03T13:23:02;9.05;;;2.67;;
28934;SDS011;16044;52.726;-2.108;2023-04-03T13:25:33;6.88;;;2.17;;
28934;SDS011;16044;52.726;-2.108;2023-04-03T13:28:04;11.52;;;2.35;;
28934;SDS011;16044;52.726;-2.108;2023-04-03T13:30:40;7.65;;;2.35;;
28934;SDS011;16044;52.726;-2.108;2023-04-03T13:33:21;8.75;;;2.50;;
28934;SDS011;16044;52.726;-2.108;2023-04-03T13:35:56;7.00;;;2.28;;
28934;SDS011;16044;52.726;-2.108;2023-04-03T13:38:31;7.47;;;2.30;;
28934;SDS011;16044;52.726;-2.108;2023-04-03T13:41:02;12.43;;;2.22;;
28934;SDS011;16044;52.726;-2.108;2023-04-03T13:46:57;10.32;;;2.40;;
28934;SDS011;16044;52.726;-2.108;2023-04-03T13:49:32;11.77;;;2.80;;
28934;SDS011;16044;52.726;-2.108;2023-04-03T13:54:58;7.05;;;2.47;;
28934;SDS011;16044;52.726;-2.108;2023-04-03T13:57:33;7.63;;;2.65;;
28934;SDS011;16044;52.726;-2.108;2023-04-03T14:00:00;7.68;;;2.40;;
28934;SDS011;16044;52.726;-2.108;2023-04-03T14:02:48;8.30;;;2.85;;
28934;SDS011;16044;52.726;-2.108;2023-04-03T14:05:15;10.60;;;2.80;;
28934;SDS011;16044;52.726;-2.108;2023-04-03T14:07:44;10.82;;;2.88;;
28934;SDS011;16044;52.726;-2.108;2023-04-03T14:10:11;12.50;;;2.70;;
28934;SDS011;16044;52.726;-2.108;2023-04-03T14:12:38;9.77;;;2.45;;
28934;SDS011;16044;52.726;-2.108;2023-04-03T14:15:18;11.77;;;2.70;;
28934;SDS011;16044;52.726;-2.108;2023-04-03T14:17:50;8.07;;;2.67;;
28934;SDS011;16044;52.726;-2.108;2023-04-03T14:20:19;6.88;;;2.50;;
28934;SDS011;16044;52.726;-2.108;2023-04-03T14:22:50;8.10;;;2.90;;
28934;SDS011;16044;52.726;-2.108;2023-04-03T14:25:18;9.10;;;3.00;;
28934;SDS011;16044;52.726;-2.108;2023-04-03T14:27:47;10.70;;;2.60;;
28934;SDS011;16044;52.726;-2.108;2023-04-03T14:32:53;8.82;;;2.60;;
28934;SDS011;16044;52.726;-2.108;2023-04-03T14:35:21;10.25;;;2.67;;
28934;SDS011;16044;52.726;-2.108;2023-04-03T14:37:51;6.95;;;2.40;;
28934;SDS011;16044;52.726;-2.108;2023-04-03T14:40:24;6.10;;;2.40;;
28934;SDS011;16044;52.726;-2.108;2023-04-03T14:42:53;9.13;;;2.78;;
28934;SDS011;16044;52.726;-2.108;2023-04-03T14:45:22;10.93;;;2.85;;
28934;SDS011;16044;52.726;-2.108;2023-04-03T14:47:51;8.70;;;2.60;;
28934;SDS011;16044;52.726;-2.108;2023-04-03T14:50:22;12.40;;;2.70;;
28934;SDS011;16044;52.726;-2.108;2023-04-03T14:52:53;8.68;;;2.88;;
28934;SDS011;16044;52.726;-2.108;2023-04-03T14:55:24;7.43;;;3.05;;
28934;SDS011;16044;52.726;-2.108;2023-04-03T14:57:53;12.43;;;2.63;;
28934;SDS011;16044;52.726;-2.108;2023-04-03T15:00:21;7.20;;;2.70;;
28934;SDS011;16044;52.726;-2.108;2023-04-03T15:02:49;12.38;;;2.95;;
28934;SDS011;16044;52.726;-2.108;2023-04-03T15:05:17;11.20;;;3.05;;
28934;SDS011;16044;52.726;-2.108;2023-04-03T15:07:53;11.70;;;3.08;;
28934;SDS011;16044;52.726;-2.108;2023-04-03T15:10:24;11.38;;;2.60;;
28934;SDS011;16044;52.726;-2.108;2023-04-03T15:12:55;11.30;;;2.80;;
28934;SDS011;16044;52.726;-2.108;2023-04-03T15:15:24;11.48;;;2.80;;
28934;SDS011;16044;52.726;-2.108;2023-04-03T15:17:53;6.85;;;2.72;;
28934;SDS011;16044;52.726;-2.108;2023-04-03T15:20:23;10.88;;;2.70;;
28934;SDS011;16044;52.726;-2.108;2023-04-03T15:22:53;10.25;;;3.00;;
28934;SDS011;16044;52.726;-2.108;2023-04-03T15:25:23;5.57;;;2.53;;
28934;SDS011;16044;52.726;-2.108;2023-04-03T15:27:52;9.20;;;2.80;;
28934;SDS011;16044;52.726;-2.108;2023-04-03T15:30:22;8.88;;;2.97;;
28934;SDS011;16044;52.726;-2.108;2023-04-03T15:32:49;10.77;;;2.90;;
28934;SDS011;16044;52.726;-2.108;2023-04-03T15:35:17;10.77;;;2.83;;
28934;SDS011;16044;52.726;-2.108;2023-04-03T15:37:44;10.88;;;3.15;;
28934;SDS011;16044;52.726;-2.108;2023-04-03T15:40:11;10.38;;;3.13;;
28934;SDS011;16044;52.726;-2.108;2023-04-03T15:42:39;11.40;;;3.15;;
28934;SDS011;16044;52.726;-2.108;2023-04-03T15:45:07;8.80;;;3.00;;
28934;SDS011;16044;52.726;-2.108;2023-04-03T15:47:34;9.35;;;3.03;;
28934;SDS011;16044;52.726;-2.108;2023-04-03T15:50:02;8.73;;;2.80;;
28934;SDS011;16044;52.726;-2.108;2023-04-03T15:52:32;9.65;;;2.72;;
28934;SDS011;16044;52.726;-2.108;2023-04-03T15:54:59;9.00;;;3.72;;
28934;SDS011;16044;52.726;-2.108;2023-04-03T15:57:27;10.07;;;3.10;;
28934;SDS011;16044;52.726;-2.108;2023-04-03T15:59:54;9.48;;;3.03;;
28934;SDS011;16044;52.726;-2.108;2023-04-03T16:02:21;7.18;;;2.40;;
28934;SDS011;16044;52.726;-2.108;2023-04-03T16:04:49;12.93;;;3.17;;
28934;SDS011;16044;52.726;-2.108;2023-04-03T16:07:16;10.13;;;4.28;;
28934;SDS011;16044;52.726;-2.108;2023-04-03T16:09:43;9.27;;;3.75;;
28934;SDS011;16044;52.726;-2.108;2023-04-03T16:12:10;11.20;;;3.08;;
28934;SDS011;16044;52.726;-2.108;2023-04-03T16:14:37;8.07;;;2.78;;
28934;SDS011;16044;52.726;-2.108;2023-04-03T16:17:04;8.80;;;2.67;;
28934;SDS011;16044;52.726;-2.108;2023-04-03T16:19:31;8.48;;;3.15;;
28934;SDS011;16044;52.726;-2.108;2023-04-03T16:21:58;8.90;;;3.35;;
28934;SDS011;16044;52.726;-2.108;2023-04-03T16:24:25;9.45;;;3.15;;
28934;SDS011;16044;52.726;-2.108;2023-04-03T16:26:52;10.80;;;3.42;;
28934;SDS011;16044;52.726;-2.108;2023-04-03T16:29:19;9.40;;;2.97;;
28934;SDS011;16044;52.726;-2.108;2023-04-03T16:31:46;8.35;;;2.97;;
28934;SDS011;16044;52.726;-2.108;2023-04-03T16:34:14;7.00;;;2.80;;
28934;SDS011;16044;52.726;-2.108;2023-04-03T16:36:42;10.93;;;2.72;;
28934;SDS011;16044;52.726;-2.108;2023-04-03T16:39:09;9.95;;;2.90;;
28934;SDS011;16044;52.726;-2.108;2023-04-03T16:41:36;7.80;;;2.53;;